createdAt,value
2022-08-27T00:02:02.270Z,21.30
2022-08-27T00:04:30.806Z,20.95
2022-08-27T00:06:58.662Z,21.27
2022-08-27T00:09:27.337Z,21.26
2022-08-27T00:11:57.504Z,21.26
2022-08-27T00:14:26.420Z,21.26
2022-08-27T00:16:54.781Z,21.26
2022-08-27T00:19:22.863Z,20.51
2022-08-27T00:21:51.084Z,19.72
2022-08-27T00:24:18.980Z,21.18
2022-08-27T00:26:46.836Z,21.17
2022-08-27T00:29:16.129Z,19.46
2022-08-27T00:31:44.073Z,21.14
2022-08-27T00:34:12.880Z,20.82
2022-08-27T00:36:41.572Z,18.84
2022-08-27T00:39:10.134Z,21.07
2022-08-27T00:41:39.418Z,21.04
2022-08-27T00:44:07.903Z,20.72
2022-08-27T00:46:42.228Z,21.00
2022-08-27T00:49:15.647Z,18.51
2022-08-27T00:51:44.354Z,20.27
2022-08-27T00:54:18.873Z,20.97
2022-08-27T00:56:51.431Z,20.95
2022-08-27T00:59:23.639Z,20.90
2022-08-27T01:02:11.353Z,20.70
2022-08-27T01:04:41.511Z,20.89
2022-08-27T01:07:11.043Z,20.78
2022-08-27T01:09:40.770Z,19.96
2022-08-27T01:12:09.279Z,20.76
2022-08-27T01:14:37.515Z,20.65
2022-08-27T01:17:10.452Z,20.73
2022-08-27T01:19:43.866Z,20.68
2022-08-27T01:22:19.113Z,20.66
2022-08-27T01:24:55.997Z,20.64
2022-08-27T01:27:27.349Z,20.60
2022-08-27T01:29:55.955Z,20.40
2022-08-27T01:32:26.588Z,20.34
2022-08-27T01:34:55.707Z,19.81
2022-08-27T01:37:25.437Z,20.52
2022-08-27T01:39:59.144Z,20.44
2022-08-27T01:42:32.005Z,19.51
2022-08-27T01:45:05.767Z,20.47
2022-08-27T01:47:35.525Z,18.87
2022-08-27T01:50:06.819Z,20.36
2022-08-27T01:52:35.064Z,20.33
2022-08-27T01:55:06.704Z,20.25
2022-08-27T01:57:38.516Z,19.07
2022-08-27T02:00:10.071Z,18.67
2022-08-27T02:02:39.805Z,18.25
2022-08-27T02:05:08.503Z,19.84
2022-08-27T02:07:37.401Z,18.47
2022-08-27T02:10:09.652Z,19.71
2022-08-27T02:12:37.674Z,19.07
2022-08-27T02:15:07.153Z,19.91
2022-08-27T02:17:35.698Z,20.12
2022-08-27T02:20:04.276Z,18.62
2022-08-27T02:22:32.241Z,20.07
2022-08-27T02:25:00.196Z,18.84
2022-08-27T02:27:29.612Z,19.13
2022-08-27T02:29:57.572Z,19.38
2022-08-27T02:32:31.601Z,19.99
2022-08-27T02:35:00.547Z,19.11
2022-08-27T02:37:29.293Z,18.34
2022-08-27T02:39:57.347Z,19.83
2022-08-27T02:42:25.538Z,18.57
2022-08-27T02:44:54.910Z,18.17
2022-08-27T02:47:22.760Z,19.89
2022-08-27T02:49:51.004Z,18.49
2022-08-27T02:52:24.846Z,19.10
2022-08-27T02:54:53.780Z,19.87
2022-08-27T02:57:22.370Z,19.57
2022-08-27T02:59:50.502Z,18.52
2022-08-27T03:02:20.552Z,18.49
2022-08-27T03:04:49.592Z,19.65
2022-08-27T03:07:19.373Z,18.79
2022-08-27T03:09:47.693Z,19.16
2022-08-27T03:12:16.477Z,19.79
2022-08-27T03:14:44.661Z,18.61
2022-08-27T03:17:29.999Z,19.82
2022-08-27T03:19:59.369Z,19.83
2022-08-27T03:22:27.314Z,19.32
2022-08-27T03:24:55.469Z,19.80
2022-08-27T03:27:23.420Z,19.28
2022-08-27T03:29:51.359Z,18.66
2022-08-27T03:32:19.203Z,19.75
2022-08-27T03:34:47.001Z,19.27
2022-08-27T03:37:16.415Z,19.69
2022-08-27T03:39:44.713Z,19.41
2022-08-27T03:42:12.795Z,17.33
2022-08-27T03:44:40.864Z,19.45
2022-08-27T03:47:08.925Z,19.44
2022-08-27T03:49:37.177Z,17.84
2022-08-27T03:52:05.141Z,18.68
2022-08-27T03:54:37.056Z,19.55
2022-08-27T03:57:06.388Z,18.64
2022-08-27T03:59:34.594Z,17.28
2022-08-27T04:02:03.049Z,19.19
2022-08-27T04:04:32.461Z,18.23
2022-08-27T04:07:00.997Z,19.51
2022-08-27T04:09:29.181Z,17.72
2022-08-27T04:11:58.466Z,19.01
2022-08-27T04:14:27.509Z,17.98
2022-08-27T04:16:57.054Z,19.29
2022-08-27T04:19:27.937Z,19.44
2022-08-27T04:22:01.428Z,16.98
2022-08-27T04:24:31.374Z,17.24
2022-08-27T04:27:02.263Z,16.96
2022-08-27T04:29:30.452Z,17.78
2022-08-27T04:31:59.153Z,18.31
2022-08-27T04:34:27.352Z,17.96
2022-08-27T04:36:56.819Z,19.36
2022-08-27T04:39:26.151Z,17.57
2022-08-27T04:41:56.071Z,19.09
2022-08-27T04:44:26.841Z,18.59
2022-08-27T04:46:57.838Z,16.21
2022-08-27T04:49:26.947Z,19.15
2022-08-27T04:51:55.512Z,17.75
2022-08-27T04:54:32.785Z,19.32
2022-08-27T04:57:02.684Z,18.74
2022-08-27T04:59:33.112Z,18.71
2022-08-27T05:02:03.555Z,18.24
2022-08-27T05:04:33.323Z,19.14
2022-08-27T05:07:01.466Z,18.19
2022-08-27T05:09:29.498Z,19.14
2022-08-27T05:11:57.520Z,19.25
2022-08-27T05:14:29.978Z,19.12
2022-08-27T05:17:00.368Z,18.97
2022-08-27T05:19:28.694Z,17.79
2022-08-27T05:21:56.885Z,19.22
2022-08-27T05:24:24.876Z,19.22
2022-08-27T05:26:53.517Z,19.23
2022-08-27T05:29:22.150Z,17.56
2022-08-27T05:31:50.360Z,19.27
2022-08-27T05:34:25.789Z,17.36
2022-08-27T05:36:55.727Z,18.85
2022-08-27T05:39:23.828Z,19.19
2022-08-27T05:41:52.919Z,19.31
2022-08-27T05:47:08.991Z,19.23
2022-08-27T05:49:38.749Z,18.10
2022-08-27T05:52:10.562Z,16.98
2022-08-27T05:54:39.686Z,19.25
2022-08-27T05:57:07.912Z,19.35
2022-08-27T05:59:53.688Z,17.64
2022-08-27T06:02:21.739Z,17.62
2022-08-27T06:04:51.264Z,19.36
2022-08-27T06:07:19.795Z,19.26
2022-08-27T06:09:47.821Z,18.91
2022-08-27T06:12:15.838Z,19.33
2022-08-27T06:14:43.748Z,19.31
2022-08-27T06:17:11.699Z,19.31
2022-08-27T06:19:42.274Z,17.05
2022-08-27T06:22:11.658Z,16.30
2022-08-27T06:24:41.317Z,17.38
2022-08-27T06:27:11.175Z,19.13
2022-08-27T06:29:39.672Z,19.41
2022-08-27T06:32:07.702Z,19.40
2022-08-27T06:34:35.519Z,19.36
2022-08-27T06:37:03.504Z,17.60
2022-08-27T06:39:32.840Z,18.93
2022-08-27T06:42:00.704Z,17.36
2022-08-27T06:44:33.775Z,19.00
2022-08-27T06:47:03.674Z,19.45
2022-08-27T06:49:33.468Z,19.48
2022-08-27T06:52:01.895Z,19.28
2022-08-27T06:54:29.790Z,19.45
2022-08-27T06:57:00.808Z,18.47
2022-08-27T06:59:31.623Z,19.34
2022-08-27T07:02:00.247Z,19.04
2022-08-27T07:04:32.837Z,19.39
2022-08-27T07:07:02.638Z,19.23
2022-08-27T07:09:32.385Z,19.39
2022-08-27T07:12:02.545Z,18.98
2022-08-27T07:14:36.968Z,18.92
2022-08-27T07:17:07.434Z,18.64
2022-08-27T07:19:40.830Z,18.46
2022-08-27T07:22:10.532Z,17.04
2022-08-27T07:24:39.538Z,19.92
2022-08-27T07:27:08.908Z,20.06
2022-08-27T07:29:37.184Z,20.15
2022-08-27T07:32:06.173Z,20.20
2022-08-27T07:34:34.337Z,20.21
2022-08-27T07:37:05.315Z,20.12
2022-08-27T07:39:33.350Z,20.26
2022-08-27T07:42:18.970Z,17.82
2022-08-27T07:44:48.531Z,18.69
2022-08-27T07:47:16.576Z,19.05
2022-08-27T07:49:44.610Z,20.31
2022-08-27T07:52:13.135Z,18.97
2022-08-27T07:54:41.465Z,18.70
2022-08-27T07:57:10.050Z,19.73
2022-08-27T07:59:38.463Z,18.62
2022-08-27T08:02:08.296Z,20.08
2022-08-27T08:04:36.455Z,18.24
2022-08-27T08:07:04.432Z,18.15
2022-08-27T08:09:32.437Z,18.91
2022-08-27T08:12:00.463Z,18.33
2022-08-27T08:14:28.392Z,19.98
2022-08-27T08:17:00.801Z,20.46
2022-08-27T08:19:32.049Z,17.89
2022-08-27T08:22:05.364Z,19.81
2022-08-27T08:24:34.663Z,17.89
2022-08-27T08:27:07.209Z,20.83
2022-08-27T08:29:37.555Z,20.96
2022-08-27T08:32:06.992Z,19.79
2022-08-27T08:34:36.923Z,21.18
2022-08-27T08:37:06.550Z,21.41
2022-08-27T08:39:35.657Z,20.93
2022-08-27T08:42:06.998Z,21.39
2022-08-27T08:44:41.486Z,21.07
2022-08-27T08:47:15.569Z,19.22
2022-08-27T08:49:52.801Z,20.96
2022-08-27T08:52:31.120Z,21.15
2022-08-27T08:55:09.257Z,19.54
2022-08-27T08:57:43.418Z,20.60
2022-08-27T09:00:14.328Z,19.54
2022-08-27T09:02:50.382Z,19.61
2022-08-27T09:05:27.125Z,20.80
2022-08-27T09:08:32.024Z,21.48
2022-08-27T09:11:02.932Z,21.46
2022-08-27T09:13:35.288Z,21.11
2022-08-27T09:16:05.165Z,21.00
2022-08-27T09:18:36.760Z,21.19
2022-08-27T09:21:15.684Z,21.39
2022-08-27T09:23:57.429Z,18.75
2022-08-27T09:26:27.940Z,20.87
2022-08-27T09:29:19.858Z,21.37
2022-08-27T09:31:54.071Z,20.33
2022-08-27T09:34:22.853Z,20.95
2022-08-27T09:37:00.167Z,20.73
2022-08-27T09:39:37.021Z,21.82
2022-08-27T09:42:07.605Z,21.62
2022-08-27T09:44:50.281Z,21.75
2022-08-27T09:47:27.686Z,22.02
2022-08-27T09:50:06.981Z,21.87
2022-08-27T09:52:49.136Z,21.56
2022-08-27T09:55:29.088Z,22.05
2022-08-27T09:58:01.483Z,21.53
2022-08-27T10:00:36.909Z,21.98
2022-08-27T10:03:06.740Z,21.79
2022-08-27T10:05:39.498Z,22.02
2022-08-27T10:08:19.719Z,22.00
2022-08-27T10:10:55.587Z,20.58
2022-08-27T10:13:29.476Z,20.73
2022-08-27T10:16:09.680Z,21.54
2022-08-27T10:18:46.323Z,21.37
2022-08-27T10:21:23.164Z,21.63
2022-08-27T10:24:09.689Z,21.60
2022-08-27T10:26:47.501Z,20.96
2022-08-27T10:29:24.325Z,21.54
2022-08-27T10:32:07.492Z,21.51
2022-08-27T10:34:55.104Z,21.19
2022-08-27T10:37:40.167Z,20.94
2022-08-27T10:40:16.857Z,21.10
2022-08-27T10:42:57.683Z,21.66
2022-08-27T10:45:42.594Z,21.67
2022-08-27T10:48:24.458Z,21.71
2022-08-27T10:50:57.651Z,21.75
2022-08-27T10:53:31.745Z,21.79
2022-08-27T10:56:11.743Z,21.90
2022-08-27T10:59:04.602Z,22.04
2022-08-27T11:01:44.464Z,22.18
2022-08-27T11:04:21.515Z,22.35
2022-08-27T11:06:57.977Z,22.49
2022-08-27T11:09:36.420Z,21.76
2022-08-27T11:12:14.339Z,20.73
2022-08-27T11:14:52.930Z,22.46
2022-08-27T11:17:31.989Z,22.63
2022-08-27T11:20:07.254Z,19.57
2022-08-27T11:22:41.527Z,21.85
2022-08-27T11:25:28.003Z,22.72
2022-08-27T11:27:59.016Z,21.77
2022-08-27T11:30:35.514Z,21.43
2022-08-27T11:33:13.728Z,22.34
2022-08-27T11:35:56.505Z,24.12
2022-08-27T11:38:38.184Z,24.39
2022-08-27T11:41:45.150Z,24.42
2022-08-27T11:44:17.495Z,22.05
2022-08-27T11:46:48.498Z,24.23
2022-08-27T11:49:26.982Z,24.10
2022-08-27T11:52:01.873Z,24.08
2022-08-27T11:54:33.096Z,22.90
2022-08-27T11:57:01.027Z,24.19
2022-08-27T11:59:35.171Z,23.75
2022-08-27T12:02:26.855Z,24.14
2022-08-27T12:04:57.622Z,24.10
2022-08-27T12:07:29.627Z,23.99
2022-08-27T12:10:17.236Z,23.98
2022-08-27T12:12:55.325Z,23.60
2022-08-27T12:15:33.994Z,23.40
2022-08-27T12:18:12.378Z,23.18
2022-08-27T12:20:51.081Z,23.76
2022-08-27T12:23:42.755Z,23.14
2022-08-27T12:26:32.132Z,23.66
2022-08-27T12:29:24.477Z,23.54
2022-08-27T12:32:09.132Z,23.17
2022-08-27T12:34:45.009Z,23.44
2022-08-27T12:37:14.417Z,22.12
2022-08-27T12:39:49.407Z,23.28
2022-08-27T12:42:21.544Z,22.88
2022-08-27T12:44:59.688Z,24.07
2022-08-27T12:47:31.879Z,23.59
2022-08-27T12:50:02.064Z,23.30
2022-08-27T12:52:45.313Z,24.39
2022-08-27T12:55:22.414Z,24.30
2022-08-27T12:57:59.130Z,24.18
2022-08-27T13:00:36.226Z,24.09
2022-08-27T13:03:23.187Z,24.01
2022-08-27T13:05:56.717Z,22.35
2022-08-27T13:08:29.812Z,23.89
2022-08-27T13:11:07.438Z,23.91
2022-08-27T13:13:40.015Z,24.07
2022-08-27T13:16:07.900Z,24.24
2022-08-27T13:18:37.908Z,24.40
2022-08-27T13:21:14.153Z,24.55
2022-08-27T13:23:46.041Z,24.73
2022-08-27T13:26:13.913Z,24.84
2022-08-27T13:28:43.744Z,24.82
2022-08-27T13:31:12.467Z,24.79
2022-08-27T13:33:42.918Z,24.74
2022-08-27T13:36:11.357Z,24.66
2022-08-27T13:38:44.515Z,24.49
2022-08-27T13:41:31.517Z,24.36
2022-08-27T13:44:06.848Z,24.69
2022-08-27T13:46:34.964Z,24.62
2022-08-27T13:49:04.144Z,24.42
2022-08-27T13:51:34.474Z,24.58
2022-08-27T13:54:13.696Z,24.67
2022-08-27T13:56:57.402Z,24.43
2022-08-27T13:59:27.909Z,24.41
2022-08-27T14:01:58.075Z,24.71
2022-08-27T14:04:35.758Z,24.70
2022-08-27T14:07:12.903Z,24.51
2022-08-27T14:09:53.941Z,24.68
2022-08-27T14:12:32.840Z,24.45
2022-08-27T14:15:16.283Z,24.54
2022-08-27T14:17:46.280Z,24.46
2022-08-27T14:20:17.316Z,24.37
2022-08-27T14:22:45.285Z,24.34
2022-08-27T14:25:14.245Z,24.30
2022-08-27T14:27:47.883Z,24.21
2022-08-27T14:30:28.874Z,24.16
2022-08-27T14:32:58.887Z,23.81
2022-08-27T14:35:28.809Z,24.03
2022-08-27T14:37:56.956Z,24.03
2022-08-27T14:40:25.515Z,23.94
2022-08-27T14:42:54.706Z,23.80
2022-08-27T14:45:26.088Z,23.71
2022-08-27T14:47:54.264Z,23.52
2022-08-27T14:50:36.693Z,23.23
2022-08-27T14:53:05.215Z,23.81
2022-08-27T14:55:32.987Z,23.88
2022-08-27T14:58:01.111Z,23.90
2022-08-27T15:00:30.380Z,23.91
2022-08-27T15:02:58.825Z,23.71
2022-08-27T15:05:27.785Z,23.63
2022-08-27T15:07:58.111Z,23.79
2022-08-27T15:10:26.618Z,23.16
2022-08-27T15:12:55.016Z,23.85
2022-08-27T15:15:22.942Z,23.92
2022-08-27T15:17:50.944Z,23.94
2022-08-27T15:20:20.397Z,23.88
2022-08-27T15:22:52.827Z,23.37
2022-08-27T15:25:22.909Z,23.57
2022-08-27T15:27:51.180Z,23.72
2022-08-27T15:30:24.890Z,23.76
2022-08-27T15:32:52.725Z,23.81
2022-08-27T15:35:26.201Z,23.85
2022-08-27T15:37:55.756Z,23.78
2022-08-27T15:40:26.390Z,23.74
2022-08-27T15:42:57.912Z,23.61
2022-08-27T15:45:27.672Z,23.57
2022-08-27T15:47:56.200Z,23.61
2022-08-27T15:50:24.965Z,23.52
2022-08-27T15:52:58.129Z,23.23
2022-08-27T15:55:29.904Z,23.21
2022-08-27T15:57:58.418Z,23.20
2022-08-27T16:00:26.831Z,23.13
2022-08-27T16:02:55.256Z,23.10
2022-08-27T16:05:23.701Z,22.89
2022-08-27T16:07:51.681Z,23.00
2022-08-27T16:10:19.586Z,22.95
2022-08-27T16:12:48.680Z,22.70
2022-08-27T16:15:17.270Z,20.77
2022-08-27T16:17:46.041Z,22.55
2022-08-27T16:20:16.628Z,22.38
2022-08-27T16:22:45.438Z,22.52
2022-08-27T16:25:18.278Z,22.66
2022-08-27T16:27:47.995Z,22.42
2022-08-27T16:30:16.028Z,22.61
2022-08-27T16:32:47.014Z,22.58
2022-08-27T16:35:15.895Z,22.42
2022-08-27T16:37:44.547Z,22.55
2022-08-27T16:40:13.294Z,22.56
2022-08-27T16:42:44.776Z,22.55
2022-08-27T16:45:16.198Z,22.53
2022-08-27T16:48:00.571Z,22.48
2022-08-27T16:50:34.806Z,22.41
2022-08-27T16:53:05.410Z,22.34
2022-08-27T16:55:33.908Z,22.26
2022-08-27T16:58:02.252Z,21.81
2022-08-27T17:00:38.428Z,19.09
2022-08-27T17:03:07.661Z,20.27
2022-08-27T17:05:35.624Z,22.04
2022-08-27T17:08:05.417Z,22.02
2022-08-27T17:10:38.809Z,21.72
2022-08-27T17:13:08.299Z,21.98
2022-08-27T17:15:37.682Z,21.94
2022-08-27T17:18:05.982Z,21.47
2022-08-27T17:20:35.367Z,21.88
2022-08-27T17:23:04.695Z,21.85
2022-08-27T17:25:32.505Z,21.81
2022-08-27T17:28:00.709Z,21.79
2022-08-27T17:30:28.978Z,21.76
2022-08-27T17:32:58.205Z,21.64
2022-08-27T17:35:26.085Z,21.71
2022-08-27T17:37:54.547Z,21.43
2022-08-27T17:40:22.582Z,21.67
2022-08-27T17:42:50.447Z,21.63
2022-08-27T17:45:18.591Z,21.43
2022-08-27T17:47:46.418Z,21.57
2022-08-27T17:50:15.600Z,21.57
2022-08-27T17:52:43.377Z,21.54
2022-08-27T17:55:11.282Z,21.51
2022-08-27T17:57:41.091Z,21.49
2022-08-27T18:00:11.847Z,20.98
2022-08-27T18:02:45.085Z,21.28
2022-08-27T18:05:15.527Z,19.61
2022-08-27T18:07:43.940Z,18.81
2022-08-27T18:10:13.927Z,21.32
2022-08-27T18:12:43.079Z,21.01
2022-08-27T18:15:15.819Z,21.25
2022-08-27T18:17:43.823Z,21.00
2022-08-27T18:20:13.937Z,20.95
2022-08-27T18:22:48.550Z,21.14
2022-08-27T18:25:17.864Z,21.10
2022-08-27T18:27:49.018Z,20.44
2022-08-27T18:30:17.133Z,21.04
2022-08-27T18:32:46.440Z,21.00
2022-08-27T18:35:16.560Z,20.97
2022-08-27T18:37:45.835Z,20.94
2022-08-27T18:40:15.785Z,20.91
2022-08-27T18:42:43.907Z,20.65
2022-08-27T18:45:13.858Z,20.85
2022-08-27T18:47:42.065Z,20.72
2022-08-27T18:50:17.530Z,20.78
2022-08-27T18:52:48.209Z,20.75
2022-08-27T18:55:20.428Z,20.73
2022-08-27T18:57:48.224Z,20.45
2022-08-27T19:00:18.875Z,20.66
2022-08-27T19:02:52.393Z,20.62
2022-08-27T19:05:24.895Z,20.61
2022-08-27T19:07:54.638Z,20.29
2022-08-27T19:10:22.606Z,20.44
2022-08-27T19:12:50.388Z,18.82
2022-08-27T19:15:18.274Z,20.49
2022-08-27T19:17:51.298Z,20.47
2022-08-27T19:20:20.752Z,20.36
2022-08-27T19:22:49.567Z,20.42
2022-08-27T19:25:19.097Z,19.64
2022-08-27T19:27:48.086Z,18.82
2022-08-27T19:30:17.752Z,20.25
2022-08-27T19:32:45.923Z,20.07
2022-08-27T19:35:15.392Z,19.07
2022-08-27T19:37:52.713Z,19.51
2022-08-27T19:40:23.470Z,20.29
2022-08-27T19:42:51.736Z,19.99
2022-08-27T19:45:25.261Z,20.27
2022-08-27T19:47:53.506Z,20.25
2022-08-27T19:50:22.838Z,20.24
2022-08-27T19:52:50.956Z,20.23
2022-08-27T19:55:18.930Z,20.21
2022-08-27T19:57:48.310Z,20.18
2022-08-27T20:00:18.925Z,20.16
2022-08-27T20:02:47.402Z,20.14
2022-08-27T20:05:19.879Z,20.13
2022-08-27T20:07:48.724Z,20.10
2022-08-27T20:10:17.094Z,19.91
2022-08-27T20:12:46.097Z,19.70
2022-08-27T20:15:41.072Z,20.02
2022-08-27T20:18:10.039Z,19.31
2022-08-27T20:20:38.376Z,19.97
2022-08-27T20:23:06.838Z,19.97
2022-08-27T20:25:35.678Z,19.97
2022-08-27T20:28:22.000Z,19.95
2022-08-27T20:30:53.210Z,19.93
2022-08-27T20:33:21.140Z,19.91
2022-08-27T20:35:49.072Z,19.89
2022-08-27T20:38:20.345Z,19.90
2022-08-27T20:40:49.170Z,19.50
2022-08-27T20:43:17.320Z,19.77
2022-08-27T20:45:45.699Z,18.28
2022-08-27T20:48:15.034Z,18.93
2022-08-27T20:50:43.530Z,19.81
2022-08-27T20:53:11.506Z,19.03
2022-08-27T20:55:39.640Z,19.78
2022-08-27T20:58:25.258Z,16.53
2022-08-27T21:00:54.950Z,19.54
2022-08-27T21:03:24.663Z,19.12
2022-08-27T21:05:52.580Z,19.62
2022-08-27T21:08:22.188Z,18.87
2022-08-27T21:10:53.212Z,19.67
2022-08-27T21:13:22.148Z,19.26
2022-08-27T21:15:56.531Z,19.52
2022-08-27T21:18:29.283Z,19.22
2022-08-27T21:20:58.253Z,19.47
2022-08-27T21:23:27.660Z,17.87
2022-08-27T21:25:55.545Z,19.60
2022-08-27T21:28:23.484Z,19.50
2022-08-27T21:30:51.348Z,17.28
2022-08-27T21:33:19.360Z,19.17
2022-08-27T21:35:48.876Z,19.53
2022-08-27T21:38:17.148Z,19.53
2022-08-27T21:40:44.998Z,19.28
2022-08-27T21:43:12.854Z,19.22
2022-08-27T21:45:41.677Z,19.49
2022-08-27T21:48:09.680Z,19.48
2022-08-27T21:50:37.679Z,19.46
2022-08-27T21:53:06.988Z,19.45
2022-08-27T21:55:34.869Z,19.35
2022-08-27T21:58:02.924Z,18.88
2022-08-27T22:00:43.894Z,18.84
2022-08-27T22:03:14.098Z,19.37
2022-08-27T22:05:43.431Z,19.36
2022-08-27T22:08:14.464Z,19.33
2022-08-27T22:10:43.725Z,19.28
2022-08-27T22:13:12.423Z,19.35
2022-08-27T22:15:40.372Z,17.37
2022-08-27T22:18:10.470Z,18.18
2022-08-27T22:20:38.739Z,19.32
2022-08-27T22:23:07.388Z,18.44
2022-08-27T22:25:36.713Z,19.29
2022-08-27T22:28:05.582Z,19.03
2022-08-27T22:30:33.541Z,19.23
2022-08-27T22:33:01.573Z,19.26
2022-08-27T22:35:29.652Z,18.93
2022-08-27T22:37:57.724Z,19.25
2022-08-27T22:40:29.118Z,19.25
2022-08-27T22:42:59.950Z,18.32
2022-08-27T22:45:28.732Z,18.02
2022-08-27T22:47:56.922Z,18.85
2022-08-27T22:50:25.435Z,16.68
2022-08-27T22:52:54.141Z,18.05
2022-08-27T22:55:24.404Z,17.31
2022-08-27T22:57:54.845Z,18.04
2022-08-27T23:00:26.642Z,19.17
2022-08-27T23:02:54.997Z,18.54
2022-08-27T23:05:24.231Z,18.60
2022-08-27T23:07:54.754Z,18.28
2022-08-27T23:10:24.910Z,18.96
2022-08-27T23:12:54.147Z,18.85
2022-08-27T23:15:25.641Z,17.58
2022-08-27T23:17:53.978Z,18.68
2022-08-27T23:20:23.370Z,19.05
2022-08-27T23:22:52.345Z,17.63
2022-08-27T23:25:39.264Z,19.03
2022-08-27T23:28:14.798Z,18.92
2022-08-27T23:30:45.276Z,18.99
2022-08-27T23:33:14.863Z,18.89
2022-08-27T23:35:47.879Z,18.10
2022-08-27T23:38:17.286Z,18.40
2022-08-27T23:40:48.263Z,18.96
2022-08-27T23:43:17.320Z,18.33
2022-08-27T23:45:46.977Z,18.65
2022-08-27T23:48:15.181Z,16.48
2022-08-27T23:50:44.124Z,18.89
2022-08-27T23:53:13.179Z,17.71
2022-08-27T23:55:41.315Z,16.98
2022-08-27T23:58:10.163Z,17.38
